Tropical Cyclones
[Index]
Main Index Home Page Stock Weather Photos Extreme Storms Discussion Storm News and Storm Chasing Reports Tropical Cyclones / Hurricanes / Typhoons Weather Data and Links Wild Fires / Bushfires Weather Observation Techniques Weather Picture Catalogue Tornado Pictures and Reports Stock Video Footage and DVDs for sale
Season 1970-1971 Tropical Cyclone MAVIS Track Map
Season 1970-1971 Summaries: [BoM-AU] [JTWC-AU] [JTWC-SIO] [JTWC-SPAC] [JTWC-SH]
<<- Previous TC | JTWC 1970-1971 Season | Next TC ->>

click for intensity scale information  Lat/long Grid: Show Hide

 Date Labels: Show Hide

Joint Typhoon Warning Centre Cyclone Data

Name: MAVIS
Number: 771 / 7126

23 Mar 1971 00:00 UTC to 29 Mar 1971 00:00 UTC

    date/time    lat    long     hPa   cat  kts
1971-03-23 00   17.0   121.0                  25          
1971-03-23 06   17.0   120.0                  20          
1971-03-23 12   17.0   119.0                  20          
1971-03-23 18   17.0   118.0                  20          
1971-03-24 00   17.0   117.0                  20          
1971-03-24 06   17.1   116.0                  20          
1971-03-24 12   17.4   115.2                  20          
1971-03-24 18   17.7   114.6                  25          
1971-03-25 00   18.0   114.0                  35          
1971-03-25 06   18.6   113.3                  35          
1971-03-25 12   19.2   112.5            1     40          
1971-03-25 18   19.6   110.9            1     40          
1971-03-26 00   20.0   109.0            1     45          
1971-03-26 06   20.5   107.7                  35          
1971-03-26 12   21.1   106.6                  25          
1971-03-26 18   21.6   105.6                  25          
1971-03-27 00   22.3   106.0                  20          
1971-03-27 06   23.4   107.9                  25          
1971-03-27 12   24.5   110.0                  25          
1971-03-27 18   25.6   111.9                  30          
1971-03-28 00   26.7   114.3                  30          
1971-03-28 06   28.3   117.9                  35          
1971-03-28 12   30.0   122.0            1     40          
1971-03-28 18   31.2   126.0            1     45          
1971-03-29 00   32.0   130.0            1     50          
Winds are 1-min average.

Tropical cyclone tracks developed by Michael Bath using data from the Joint Typhoon Warning Centre Best Tracks and Google Maps.


[Australian Severe Weather index] [Copyright Notice] [Email Contacts] [Search This Site] [Privacy Policy]
Document: tropical_cyclone_mavis.htm Updated: 18 September 2016